sensor_id;sensor_type;location;lat;lon;timestamp;temperature;humidity
8408;DHT22;4241;48.452;9.216;2023-04-24T00:02:01;12.00;99.90
8408;DHT22;4241;48.452;9.216;2023-04-24T00:04:29;11.90;99.90
8408;DHT22;4241;48.452;9.216;2023-04-24T00:06:58;11.90;99.90
8408;DHT22;4241;48.452;9.216;2023-04-24T00:09:25;11.80;99.90
8408;DHT22;4241;48.452;9.216;2023-04-24T00:11:52;11.80;99.90
8408;DHT22;4241;48.452;9.216;2023-04-24T00:14:19;11.90;99.90
8408;DHT22;4241;48.452;9.216;2023-04-24T00:16:46;11.80;99.90
8408;DHT22;4241;48.452;9.216;2023-04-24T00:19:13;11.90;99.90
8408;DHT22;4241;48.452;9.216;2023-04-24T00:21:40;11.80;99.90
8408;DHT22;4241;48.452;9.216;2023-04-24T00:24:08;11.80;99.90
8408;DHT22;4241;48.452;9.216;2023-04-24T00:31:30;11.80;99.90
8408;DHT22;4241;48.452;9.216;2023-04-24T00:33:57;12.00;99.90
8408;DHT22;4241;48.452;9.216;2023-04-24T00:36:24;11.90;99.90
8408;DHT22;4241;48.452;9.216;2023-04-24T00:38:52;11.90;99.90
8408;DHT22;4241;48.452;9.216;2023-04-24T00:41:20;12.10;99.90
8408;DHT22;4241;48.452;9.216;2023-04-24T00:43:47;12.10;99.90
8408;DHT22;4241;48.452;9.216;2023-04-24T00:53:36;11.90;99.90
8408;DHT22;4241;48.452;9.216;2023-04-24T00:58:31;11.80;99.90
8408;DHT22;4241;48.452;9.216;2023-04-24T01:00:58;11.70;99.90
8408;DHT22;4241;48.452;9.216;2023-04-24T01:03:29;11.70;99.90
8408;DHT22;4241;48.452;9.216;2023-04-24T01:05:57;11.80;99.90
8408;DHT22;4241;48.452;9.216;2023-04-24T01:08:24;11.60;99.90
8408;DHT22;4241;48.452;9.216;2023-04-24T01:10:53;11.70;99.90
8408;DHT22;4241;48.452;9.216;2023-04-24T01:13:20;11.70;99.90
8408;DHT22;4241;48.452;9.216;2023-04-24T01:15:49;11.70;99.90
8408;DHT22;4241;48.452;9.216;2023-04-24T01:18:15;11.60;99.90
8408;DHT22;4241;48.452;9.216;2023-04-24T01:20:43;11.60;99.90
8408;DHT22;4241;48.452;9.216;2023-04-24T01:23:12;11.70;99.90
8408;DHT22;4241;48.452;9.216;2023-04-24T01:25:39;11.90;99.90
8408;DHT22;4241;48.452;9.216;2023-04-24T01:28:06;11.70;99.90
8408;DHT22;4241;48.452;9.216;2023-04-24T01:30:32;11.70;99.90
8408;DHT22;4241;48.452;9.216;2023-04-24T01:32:59;11.70;99.90
8408;DHT22;4241;48.452;9.216;2023-04-24T01:37:53;11.80;99.90
8408;DHT22;4241;48.452;9.216;2023-04-24T01:40:22;11.60;99.90
8408;DHT22;4241;48.452;9.216;2023-04-24T01:47:44;11.70;99.90
8408;DHT22;4241;48.452;9.216;2023-04-24T01:50:11;11.40;99.90
8408;DHT22;4241;48.452;9.216;2023-04-24T01:55:06;11.40;99.90
8408;DHT22;4241;48.452;9.216;2023-04-24T01:57:35;11.40;99.90
8408;DHT22;4241;48.452;9.216;2023-04-24T02:00:02;11.40;99.90
8408;DHT22;4241;48.452;9.216;2023-04-24T02:02:32;11.30;99.90
8408;DHT22;4241;48.452;9.216;2023-04-24T02:09:55;11.30;99.90
8408;DHT22;4241;48.452;9.216;2023-04-24T02:12:22;11.50;99.90
8408;DHT22;4241;48.452;9.216;2023-04-24T02:14:50;11.40;99.90
8408;DHT22;4241;48.452;9.216;2023-04-24T02:17:17;11.40;99.90
8408;DHT22;4241;48.452;9.216;2023-04-24T02:19:44;11.30;99.90
8408;DHT22;4241;48.452;9.216;2023-04-24T02:22:11;11.40;99.90
8408;DHT22;4241;48.452;9.216;2023-04-24T02:24:38;11.40;99.90
8408;DHT22;4241;48.452;9.216;2023-04-24T02:27:05;11.30;99.90
8408;DHT22;4241;48.452;9.216;2023-04-24T02:29:32;11.30;99.90
8408;DHT22;4241;48.452;9.216;2023-04-24T02:32:00;11.40;99.90
8408;DHT22;4241;48.452;9.216;2023-04-24T02:34:27;11.30;99.90
8408;DHT22;4241;48.452;9.216;2023-04-24T02:36:54;11.30;99.90
8408;DHT22;4241;48.452;9.216;2023-04-24T02:39:21;11.30;99.90
8408;DHT22;4241;48.452;9.216;2023-04-24T02:41:48;11.30;99.90
8408;DHT22;4241;48.452;9.216;2023-04-24T02:46:43;11.00;99.90
8408;DHT22;4241;48.452;9.216;2023-04-24T02:49:11;11.00;99.90
8408;DHT22;4241;48.452;9.216;2023-04-24T02:54:07;11.00;99.90
8408;DHT22;4241;48.452;9.216;2023-04-24T02:59:01;11.00;99.90
8408;DHT22;4241;48.452;9.216;2023-04-24T03:01:28;11.10;99.90
8408;DHT22;4241;48.452;9.216;2023-04-24T03:03:55;11.00;99.90
8408;DHT22;4241;48.452;9.216;2023-04-24T03:06:23;11.00;99.90
8408;DHT22;4241;48.452;9.216;2023-04-24T03:11:17;10.90;99.90
8408;DHT22;4241;48.452;9.216;2023-04-24T03:13:43;11.00;99.90
8408;DHT22;4241;48.452;9.216;2023-04-24T03:16:10;10.90;99.90
8408;DHT22;4241;48.452;9.216;2023-04-24T03:18:37;10.80;99.90
8408;DHT22;4241;48.452;9.216;2023-04-24T03:21:04;10.80;99.90
8408;DHT22;4241;48.452;9.216;2023-04-24T03:23:32;10.90;99.90
8408;DHT22;4241;48.452;9.216;2023-04-24T03:25:59;10.90;99.90
8408;DHT22;4241;48.452;9.216;2023-04-24T03:28:26;10.70;99.90
8408;DHT22;4241;48.452;9.216;2023-04-24T03:40:42;11.00;99.90
8408;DHT22;4241;48.452;9.216;2023-04-24T03:48:04;10.80;99.90
8408;DHT22;4241;48.452;9.216;2023-04-24T03:57:53;11.00;99.90
8408;DHT22;4241;48.452;9.216;2023-04-24T04:00:20;11.00;99.90
8408;DHT22;4241;48.452;9.216;2023-04-24T04:15:05;10.80;99.90
8408;DHT22;4241;48.452;9.216;2023-04-24T04:17:32;10.80;99.90
8408;DHT22;4241;48.452;9.216;2023-04-24T04:22:26;10.70;99.90
8408;DHT22;4241;48.452;9.216;2023-04-24T04:27:20;10.80;99.90
8408;DHT22;4241;48.452;9.216;2023-04-24T04:29:47;10.70;99.90
8408;DHT22;4241;48.452;9.216;2023-04-24T04:32:15;10.70;99.90
8408;DHT22;4241;48.452;9.216;2023-04-24T04:34:42;10.70;99.90
8408;DHT22;4241;48.452;9.216;2023-04-24T04:37:10;10.60;99.90
8408;DHT22;4241;48.452;9.216;2023-04-24T04:47:01;10.70;99.90
8408;DHT22;4241;48.452;9.216;2023-04-24T04:49:32;10.70;99.90
8408;DHT22;4241;48.452;9.216;2023-04-24T05:01:48;10.50;99.90
8408;DHT22;4241;48.452;9.216;2023-04-24T05:04:15;10.20;99.90
8408;DHT22;4241;48.452;9.216;2023-04-24T05:06:43;10.00;99.90
8408;DHT22;4241;48.452;9.216;2023-04-24T05:23:54;9.40;99.90
8408;DHT22;4241;48.452;9.216;2023-04-24T05:26:20;9.50;99.90
8408;DHT22;4241;48.452;9.216;2023-04-24T05:28:48;9.40;99.90
8408;DHT22;4241;48.452;9.216;2023-04-24T05:33:43;9.40;99.90
8408;DHT22;4241;48.452;9.216;2023-04-24T05:36:10;9.40;99.90
8408;DHT22;4241;48.452;9.216;2023-04-24T05:38:37;9.40;99.90
8408;DHT22;4241;48.452;9.216;2023-04-24T05:41:05;9.20;99.90
8408;DHT22;4241;48.452;9.216;2023-04-24T05:50:53;9.30;99.90
8408;DHT22;4241;48.452;9.216;2023-04-24T05:55:47;9.30;99.90
8408;DHT22;4241;48.452;9.216;2023-04-24T05:58:15;9.20;99.90
8408;DHT22;4241;48.452;9.216;2023-04-24T06:00:42;9.40;99.90
8408;DHT22;4241;48.452;9.216;2023-04-24T06:10:36;9.40;99.90
8408;DHT22;4241;48.452;9.216;2023-04-24T06:15:31;9.30;99.90
8408;DHT22;4241;48.452;9.216;2023-04-24T06:17:58;9.20;99.90
8408;DHT22;4241;48.452;9.216;2023-04-24T06:20:25;9.50;99.90
8408;DHT22;4241;48.452;9.216;2023-04-24T06:22:52;9.60;99.90
8408;DHT22;4241;48.452;9.216;2023-04-24T06:25:21;9.70;99.90
8408;DHT22;4241;48.452;9.216;2023-04-24T06:27:48;9.70;99.90
8408;DHT22;4241;48.452;9.216;2023-04-24T06:30:15;9.80;99.90
8408;DHT22;4241;48.452;9.216;2023-04-24T06:32:43;9.70;99.90
8408;DHT22;4241;48.452;9.216;2023-04-24T06:35:10;9.70;99.90
8408;DHT22;4241;48.452;9.216;2023-04-24T06:37:38;9.70;99.90
8408;DHT22;4241;48.452;9.216;2023-04-24T06:40:06;9.80;99.90
8408;DHT22;4241;48.452;9.216;2023-04-24T06:42:34;9.90;99.90
8408;DHT22;4241;48.452;9.216;2023-04-24T06:47:29;9.90;99.90
8408;DHT22;4241;48.452;9.216;2023-04-24T06:49:57;10.00;99.90
8408;DHT22;4241;48.452;9.216;2023-04-24T06:52:24;10.00;99.90
8408;DHT22;4241;48.452;9.216;2023-04-24T06:54:51;10.10;99.90
8408;DHT22;4241;48.452;9.216;2023-04-24T07:07:08;10.00;99.90
8408;DHT22;4241;48.452;9.216;2023-04-24T07:09:38;10.30;99.90
8408;DHT22;4241;48.452;9.216;2023-04-24T07:12:06;10.40;99.90
8408;DHT22;4241;48.452;9.216;2023-04-24T07:17:02;10.60;99.90
8408;DHT22;4241;48.452;9.216;2023-04-24T07:19:29;10.70;99.90
8408;DHT22;4241;48.452;9.216;2023-04-24T07:24:25;10.80;99.90
8408;DHT22;4241;48.452;9.216;2023-04-24T07:26:53;10.60;99.90
8408;DHT22;4241;48.452;9.216;2023-04-24T07:29:20;10.80;99.90
8408;DHT22;4241;48.452;9.216;2023-04-24T07:39:08;10.50;99.90
8408;DHT22;4241;48.452;9.216;2023-04-24T07:41:37;10.40;99.90
8408;DHT22;4241;48.452;9.216;2023-04-24T07:44:03;10.50;99.90
8408;DHT22;4241;48.452;9.216;2023-04-24T07:46:30;10.20;99.90
8408;DHT22;4241;48.452;9.216;2023-04-24T07:48:57;10.40;99.90
8408;DHT22;4241;48.452;9.216;2023-04-24T07:51:24;10.50;99.90
8408;DHT22;4241;48.452;9.216;2023-04-24T07:53:52;10.50;99.90
8408;DHT22;4241;48.452;9.216;2023-04-24T07:56:20;10.50;99.90
8408;DHT22;4241;48.452;9.216;2023-04-24T07:58:48;10.50;99.90
8408;DHT22;4241;48.452;9.216;2023-04-24T08:01:15;10.70;99.90
8408;DHT22;4241;48.452;9.216;2023-04-24T08:06:09;10.90;99.90
8408;DHT22;4241;48.452;9.216;2023-04-24T08:08:36;11.00;99.90
8408;DHT22;4241;48.452;9.216;2023-04-24T08:11:02;11.10;99.90
8408;DHT22;4241;48.452;9.216;2023-04-24T08:13:29;11.00;99.90
8408;DHT22;4241;48.452;9.216;2023-04-24T08:15:57;11.10;99.90
8408;DHT22;4241;48.452;9.216;2023-04-24T08:30:45;12.00;99.90
8408;DHT22;4241;48.452;9.216;2023-04-24T08:33:14;12.00;99.90
8408;DHT22;4241;48.452;9.216;2023-04-24T08:35:41;11.60;99.90
8408;DHT22;4241;48.452;9.216;2023-04-24T08:38:07;11.50;99.90
8408;DHT22;4241;48.452;9.216;2023-04-24T08:40:35;11.40;99.90
8408;DHT22;4241;48.452;9.216;2023-04-24T08:43:03;11.10;99.90
8408;DHT22;4241;48.452;9.216;2023-04-24T08:45:30;11.00;99.90
8408;DHT22;4241;48.452;9.216;2023-04-24T08:47:58;10.70;99.90
8408;DHT22;4241;48.452;9.216;2023-04-24T08:50:29;10.70;99.90
8408;DHT22;4241;48.452;9.216;2023-04-24T08:52:56;11.30;99.90
8408;DHT22;4241;48.452;9.216;2023-04-24T08:55:24;10.50;99.90
8408;DHT22;4241;48.452;9.216;2023-04-24T08:57:52;10.60;99.90
8408;DHT22;4241;48.452;9.216;2023-04-24T09:00:20;10.80;99.90
8408;DHT22;4241;48.452;9.216;2023-04-24T09:02:49;10.90;99.90
8408;DHT22;4241;48.452;9.216;2023-04-24T09:05:17;11.00;99.90
8408;DHT22;4241;48.452;9.216;2023-04-24T09:07:51;11.00;99.90
8408;DHT22;4241;48.452;9.216;2023-04-24T09:10:21;11.10;99.90
8408;DHT22;4241;48.452;9.216;2023-04-24T09:12:50;11.20;99.90
8408;DHT22;4241;48.452;9.216;2023-04-24T09:15:16;11.30;99.90
8408;DHT22;4241;48.452;9.216;2023-04-24T09:17:43;11.30;99.90
8408;DHT22;4241;48.452;9.216;2023-04-24T09:20:10;11.50;99.90
8408;DHT22;4241;48.452;9.216;2023-04-24T09:22:37;11.50;99.90
8408;DHT22;4241;48.452;9.216;2023-04-24T09:25:07;11.50;99.90
8408;DHT22;4241;48.452;9.216;2023-04-24T09:27:35;11.60;99.90
8408;DHT22;4241;48.452;9.216;2023-04-24T09:32:29;11.50;99.90
8408;DHT22;4241;48.452;9.216;2023-04-24T09:35:10;11.10;99.90
8408;DHT22;4241;48.452;9.216;2023-04-24T09:37:38;10.80;99.90
8408;DHT22;4241;48.452;9.216;2023-04-24T09:40:14;10.50;99.90
8408;DHT22;4241;48.452;9.216;2023-04-24T09:42:44;10.40;99.90
8408;DHT22;4241;48.452;9.216;2023-04-24T09:45:12;10.20;99.90
8408;DHT22;4241;48.452;9.216;2023-04-24T09:47:39;10.10;99.90
8408;DHT22;4241;48.452;9.216;2023-04-24T09:50:11;10.20;99.90
8408;DHT22;4241;48.452;9.216;2023-04-24T09:52:42;10.40;99.90
8408;DHT22;4241;48.452;9.216;2023-04-24T09:55:20;10.60;99.90
8408;DHT22;4241;48.452;9.216;2023-04-24T09:57:51;10.80;99.90
8408;DHT22;4241;48.452;9.216;2023-04-24T10:00:20;10.90;99.90
8408;DHT22;4241;48.452;9.216;2023-04-24T10:02:54;11.10;99.90
8408;DHT22;4241;48.452;9.216;2023-04-24T10:05:23;11.30;99.90
8408;DHT22;4241;48.452;9.216;2023-04-24T10:10:17;11.80;99.90
8408;DHT22;4241;48.452;9.216;2023-04-24T10:12:46;11.60;99.90
8408;DHT22;4241;48.452;9.216;2023-04-24T10:15:13;9.80;99.90
8408;DHT22;4241;48.452;9.216;2023-04-24T10:17:45;11.70;99.90
8408;DHT22;4241;48.452;9.216;2023-04-24T10:20:18;11.60;99.90
8408;DHT22;4241;48.452;9.216;2023-04-24T10:22:46;11.90;99.90
8408;DHT22;4241;48.452;9.216;2023-04-24T10:25:16;12.00;99.90
8408;DHT22;4241;48.452;9.216;2023-04-24T10:27:43;12.30;99.90
8408;DHT22;4241;48.452;9.216;2023-04-24T10:30:15;12.60;99.90
8408;DHT22;4241;48.452;9.216;2023-04-24T10:32:42;12.60;99.90
8408;DHT22;4241;48.452;9.216;2023-04-24T10:35:09;12.50;99.90
8408;DHT22;4241;48.452;9.216;2023-04-24T10:37:40;12.60;99.90
8408;DHT22;4241;48.452;9.216;2023-04-24T10:40:11;12.60;99.90
8408;DHT22;4241;48.452;9.216;2023-04-24T10:42:40;13.00;99.90
8408;DHT22;4241;48.452;9.216;2023-04-24T10:45:17;13.10;99.90
8408;DHT22;4241;48.452;9.216;2023-04-24T10:47:57;13.40;99.90
8408;DHT22;4241;48.452;9.216;2023-04-24T10:50:26;13.90;99.90
8408;DHT22;4241;48.452;9.216;2023-04-24T10:52:53;13.90;99.90
8408;DHT22;4241;48.452;9.216;2023-04-24T10:55:42;14.00;98.50
8408;DHT22;4241;48.452;9.216;2023-04-24T10:58:09;14.20;99.90
8408;DHT22;4241;48.452;9.216;2023-04-24T11:00:39;14.00;99.90
8408;DHT22;4241;48.452;9.216;2023-04-24T11:03:06;13.70;97.00
8408;DHT22;4241;48.452;9.216;2023-04-24T11:05:55;13.60;97.60
8408;DHT22;4241;48.452;9.216;2023-04-24T11:08:25;13.40;95.80
8408;DHT22;4241;48.452;9.216;2023-04-24T11:10:57;12.70;99.90
8408;DHT22;4241;48.452;9.216;2023-04-24T11:13:25;12.30;99.90
8408;DHT22;4241;48.452;9.216;2023-04-24T11:16:15;12.10;99.90
8408;DHT22;4241;48.452;9.216;2023-04-24T11:18:50;11.90;99.90
8408;DHT22;4241;48.452;9.216;2023-04-24T11:21:20;11.70;99.90
8408;DHT22;4241;48.452;9.216;2023-04-24T11:23:47;11.60;99.90
8408;DHT22;4241;48.452;9.216;2023-04-24T11:26:18;11.20;99.90
8408;DHT22;4241;48.452;9.216;2023-04-24T11:28:49;11.20;99.90
8408;DHT22;4241;48.452;9.216;2023-04-24T11:31:39;11.20;99.90
8408;DHT22;4241;48.452;9.216;2023-04-24T11:34:09;11.30;99.90
8408;DHT22;4241;48.452;9.216;2023-04-24T11:36:37;11.50;99.90
8408;DHT22;4241;48.452;9.216;2023-04-24T11:39:05;11.70;99.90
8408;DHT22;4241;48.452;9.216;2023-04-24T11:41:32;11.70;99.90
8408;DHT22;4241;48.452;9.216;2023-04-24T11:43:59;11.70;99.90
8408;DHT22;4241;48.452;9.216;2023-04-24T11:46:28;11.50;99.90
8408;DHT22;4241;48.452;9.216;2023-04-24T11:48:56;11.40;99.90
8408;DHT22;4241;48.452;9.216;2023-04-24T11:51:23;11.30;99.90
8408;DHT22;4241;48.452;9.216;2023-04-24T11:53:50;11.50;99.90
8408;DHT22;4241;48.452;9.216;2023-04-24T11:56:18;11.50;99.90
8408;DHT22;4241;48.452;9.216;2023-04-24T11:58:45;11.40;99.90
8408;DHT22;4241;48.452;9.216;2023-04-24T12:01:13;11.30;99.90
8408;DHT22;4241;48.452;9.216;2023-04-24T12:03:40;11.50;99.90
8408;DHT22;4241;48.452;9.216;2023-04-24T12:06:11;11.50;99.90
8408;DHT22;4241;48.452;9.216;2023-04-24T12:08:38;11.20;99.90
8408;DHT22;4241;48.452;9.216;2023-04-24T12:11:06;11.20;99.90
8408;DHT22;4241;48.452;9.216;2023-04-24T12:13:34;11.20;99.90
8408;DHT22;4241;48.452;9.216;2023-04-24T12:16:03;11.20;99.90
8408;DHT22;4241;48.452;9.216;2023-04-24T12:18:30;11.00;99.90
8408;DHT22;4241;48.452;9.216;2023-04-24T12:21:16;11.00;99.90
8408;DHT22;4241;48.452;9.216;2023-04-24T12:23:43;11.10;99.90
8408;DHT22;4241;48.452;9.216;2023-04-24T12:26:11;10.70;99.90
8408;DHT22;4241;48.452;9.216;2023-04-24T12:28:38;10.70;99.90
8408;DHT22;4241;48.452;9.216;2023-04-24T12:31:06;10.90;99.90
8408;DHT22;4241;48.452;9.216;2023-04-24T12:33:34;11.10;99.90
8408;DHT22;4241;48.452;9.216;2023-04-24T12:36:01;11.00;99.90
8408;DHT22;4241;48.452;9.216;2023-04-24T12:38:30;11.20;99.90
8408;DHT22;4241;48.452;9.216;2023-04-24T12:41:03;11.20;99.90
8408;DHT22;4241;48.452;9.216;2023-04-24T12:43:31;11.40;99.90
8408;DHT22;4241;48.452;9.216;2023-04-24T12:45:58;11.40;99.90
8408;DHT22;4241;48.452;9.216;2023-04-24T12:50:52;11.50;99.90
8408;DHT22;4241;48.452;9.216;2023-04-24T12:55:48;11.80;99.90
8408;DHT22;4241;48.452;9.216;2023-04-24T12:58:18;11.90;99.90
8408;DHT22;4241;48.452;9.216;2023-04-24T13:00:45;11.70;99.90
8408;DHT22;4241;48.452;9.216;2023-04-24T13:03:12;11.90;99.90
8408;DHT22;4241;48.452;9.216;2023-04-24T13:05:39;11.60;99.90
8408;DHT22;4241;48.452;9.216;2023-04-24T13:08:06;11.40;99.90
8408;DHT22;4241;48.452;9.216;2023-04-24T13:10:33;11.70;99.90
8408;DHT22;4241;48.452;9.216;2023-04-24T13:13:02;11.80;99.90
8408;DHT22;4241;48.452;9.216;2023-04-24T13:15:29;11.70;99.90
8408;DHT22;4241;48.452;9.216;2023-04-24T13:17:56;12.20;99.90
8408;DHT22;4241;48.452;9.216;2023-04-24T13:25:17;12.90;99.90
8408;DHT22;4241;48.452;9.216;2023-04-24T13:27:45;13.10;99.90
8408;DHT22;4241;48.452;9.216;2023-04-24T13:30:14;13.30;99.90
8408;DHT22;4241;48.452;9.216;2023-04-24T13:32:44;13.40;99.90
8408;DHT22;4241;48.452;9.216;2023-04-24T13:35:10;13.50;99.90
8408;DHT22;4241;48.452;9.216;2023-04-24T13:40:05;13.50;99.90
8408;DHT22;4241;48.452;9.216;2023-04-24T13:47:28;13.00;99.90
8408;DHT22;4241;48.452;9.216;2023-04-24T13:49:55;12.80;99.90
8408;DHT22;4241;48.452;9.216;2023-04-24T13:52:22;12.60;99.90
8408;DHT22;4241;48.452;9.216;2023-04-24T13:54:48;12.70;99.90
8408;DHT22;4241;48.452;9.216;2023-04-24T13:57:15;12.70;99.90
8408;DHT22;4241;48.452;9.216;2023-04-24T13:59:43;12.40;99.90
8408;DHT22;4241;48.452;9.216;2023-04-24T14:04:39;12.40;99.40
8408;DHT22;4241;48.452;9.216;2023-04-24T14:07:06;12.20;99.90
8408;DHT22;4241;48.452;9.216;2023-04-24T14:09:33;11.80;99.90
8408;DHT22;4241;48.452;9.216;2023-04-24T14:12:00;11.70;99.90
8408;DHT22;4241;48.452;9.216;2023-04-24T14:14:28;11.70;99.90
8408;DHT22;4241;48.452;9.216;2023-04-24T14:16:56;11.70;99.90
8408;DHT22;4241;48.452;9.216;2023-04-24T14:19:23;11.70;99.90
8408;DHT22;4241;48.452;9.216;2023-04-24T14:21:52;11.70;99.90
8408;DHT22;4241;48.452;9.216;2023-04-24T14:24:19;11.70;99.90
8408;DHT22;4241;48.452;9.216;2023-04-24T14:26:46;11.60;99.90
8408;DHT22;4241;48.452;9.216;2023-04-24T14:34:07;11.90;99.90
8408;DHT22;4241;48.452;9.216;2023-04-24T14:36:33;11.90;99.90
8408;DHT22;4241;48.452;9.216;2023-04-24T14:39:02;11.80;99.90
8408;DHT22;4241;48.452;9.216;2023-04-24T14:41:32;11.60;99.90
8408;DHT22;4241;48.452;9.216;2023-04-24T14:44:01;12.00;99.90
8408;DHT22;4241;48.452;9.216;2023-04-24T14:46:28;11.80;99.90
8408;DHT22;4241;48.452;9.216;2023-04-24T14:48:55;11.90;99.90
8408;DHT22;4241;48.452;9.216;2023-04-24T14:51:22;12.10;99.90
8408;DHT22;4241;48.452;9.216;2023-04-24T14:56:18;12.20;99.90
8408;DHT22;4241;48.452;9.216;2023-04-24T15:11:01;12.40;99.90
8408;DHT22;4241;48.452;9.216;2023-04-24T15:13:29;12.20;99.90
8408;DHT22;4241;48.452;9.216;2023-04-24T15:15:56;12.20;99.90
8408;DHT22;4241;48.452;9.216;2023-04-24T15:20:50;12.10;99.90
8408;DHT22;4241;48.452;9.216;2023-04-24T15:23:17;12.10;99.90
8408;DHT22;4241;48.452;9.216;2023-04-24T15:25:43;12.20;99.90
8408;DHT22;4241;48.452;9.216;2023-04-24T15:28:11;11.90;99.90
8408;DHT22;4241;48.452;9.216;2023-04-24T15:30:39;11.80;99.90
8408;DHT22;4241;48.452;9.216;2023-04-24T15:33:06;11.90;99.90
8408;DHT22;4241;48.452;9.216;2023-04-24T15:35:33;11.90;99.90
8408;DHT22;4241;48.452;9.216;2023-04-24T15:38:01;11.90;99.90
8408;DHT22;4241;48.452;9.216;2023-04-24T15:40:29;11.90;99.90
8408;DHT22;4241;48.452;9.216;2023-04-24T15:47:51;11.90;99.90
8408;DHT22;4241;48.452;9.216;2023-04-24T15:50:18;12.10;99.90
8408;DHT22;4241;48.452;9.216;2023-04-24T15:52:47;13.40;99.90
8408;DHT22;4241;48.452;9.216;2023-04-24T15:55:14;11.90;99.90
8408;DHT22;4241;48.452;9.216;2023-04-24T15:57:41;12.00;99.90
8408;DHT22;4241;48.452;9.216;2023-04-24T16:00:09;12.00;99.90
8408;DHT22;4241;48.452;9.216;2023-04-24T16:02:36;11.80;99.90
8408;DHT22;4241;48.452;9.216;2023-04-24T16:05:05;11.90;99.90
8408;DHT22;4241;48.452;9.216;2023-04-24T16:07:33;11.90;99.90
8408;DHT22;4241;48.452;9.216;2023-04-24T16:17:21;12.60;99.90
8408;DHT22;4241;48.452;9.216;2023-04-24T16:19:48;12.80;99.90
8408;DHT22;4241;48.452;9.216;2023-04-24T16:22:16;12.90;99.90
8408;DHT22;4241;48.452;9.216;2023-04-24T16:24:43;12.60;99.90
8408;DHT22;4241;48.452;9.216;2023-04-24T16:27:13;12.40;99.90
8408;DHT22;4241;48.452;9.216;2023-04-24T16:29:39;12.60;99.90
8408;DHT22;4241;48.452;9.216;2023-04-24T16:32:06;12.50;99.90
8408;DHT22;4241;48.452;9.216;2023-04-24T16:34:33;12.50;99.90
8408;DHT22;4241;48.452;9.216;2023-04-24T16:39:28;12.20;99.90
8408;DHT22;4241;48.452;9.216;2023-04-24T16:44:22;12.20;99.90
8408;DHT22;4241;48.452;9.216;2023-04-24T16:56:39;12.20;99.90
8408;DHT22;4241;48.452;9.216;2023-04-24T16:59:06;12.20;99.90
8408;DHT22;4241;48.452;9.216;2023-04-24T17:01:34;12.20;99.90
8408;DHT22;4241;48.452;9.216;2023-04-24T17:04:01;12.20;99.90
8408;DHT22;4241;48.452;9.216;2023-04-24T17:08:55;11.90;99.90
8408;DHT22;4241;48.452;9.216;2023-04-24T17:11:22;12.10;99.90
8408;DHT22;4241;48.452;9.216;2023-04-24T17:13:50;11.90;99.90
8408;DHT22;4241;48.452;9.216;2023-04-24T17:16:17;11.80;99.90
8408;DHT22;4241;48.452;9.216;2023-04-24T17:18:44;11.80;99.90
8408;DHT22;4241;48.452;9.216;2023-04-24T17:21:11;11.80;99.90
8408;DHT22;4241;48.452;9.216;2023-04-24T17:23:38;11.60;99.90
8408;DHT22;4241;48.452;9.216;2023-04-24T17:26:04;11.60;99.90
8408;DHT22;4241;48.452;9.216;2023-04-24T17:28:31;11.60;99.90
8408;DHT22;4241;48.452;9.216;2023-04-24T17:31:00;11.80;99.90
8408;DHT22;4241;48.452;9.216;2023-04-24T17:33:28;12.20;99.90
8408;DHT22;4241;48.452;9.216;2023-04-24T17:35:55;12.50;99.90
8408;DHT22;4241;48.452;9.216;2023-04-24T17:38:22;12.40;99.90
8408;DHT22;4241;48.452;9.216;2023-04-24T17:40:49;12.40;99.90
8408;DHT22;4241;48.452;9.216;2023-04-24T17:43:17;12.30;99.90
8408;DHT22;4241;48.452;9.216;2023-04-24T17:48:13;12.10;99.90
8408;DHT22;4241;48.452;9.216;2023-04-24T17:50:40;12.00;99.90
8408;DHT22;4241;48.452;9.216;2023-04-24T17:53:07;11.70;99.90
8408;DHT22;4241;48.452;9.216;2023-04-24T17:55:35;11.60;99.90
8408;DHT22;4241;48.452;9.216;2023-04-24T17:58:02;11.60;99.90
8408;DHT22;4241;48.452;9.216;2023-04-24T18:00:29;11.40;99.90
8408;DHT22;4241;48.452;9.216;2023-04-24T18:05:27;11.20;99.90
8408;DHT22;4241;48.452;9.216;2023-04-24T18:10:21;11.00;99.90
8408;DHT22;4241;48.452;9.216;2023-04-24T18:12:48;10.30;99.90
8408;DHT22;4241;48.452;9.216;2023-04-24T18:17:43;10.80;99.90
8408;DHT22;4241;48.452;9.216;2023-04-24T18:20:10;10.70;99.90
8408;DHT22;4241;48.452;9.216;2023-04-24T18:22:39;10.60;99.90
8408;DHT22;4241;48.452;9.216;2023-04-24T18:25:06;10.50;99.90
8408;DHT22;4241;48.452;9.216;2023-04-24T18:39:51;10.30;99.90
8408;DHT22;4241;48.452;9.216;2023-04-24T18:42:19;10.30;99.90
8408;DHT22;4241;48.452;9.216;2023-04-24T18:44:46;10.40;99.90
8408;DHT22;4241;48.452;9.216;2023-04-24T18:52:08;10.30;99.90
8408;DHT22;4241;48.452;9.216;2023-04-24T18:54:35;10.20;99.90
8408;DHT22;4241;48.452;9.216;2023-04-24T18:57:03;10.20;99.90
8408;DHT22;4241;48.452;9.216;2023-04-24T18:59:30;10.20;99.90
8408;DHT22;4241;48.452;9.216;2023-04-24T19:01:57;10.20;99.90
8408;DHT22;4241;48.452;9.216;2023-04-24T19:11:45;10.00;99.90
8408;DHT22;4241;48.452;9.216;2023-04-24T19:14:13;10.00;99.90
8408;DHT22;4241;48.452;9.216;2023-04-24T19:16:40;9.80;99.90
8408;DHT22;4241;48.452;9.216;2023-04-24T19:19:07;9.60;99.90
8408;DHT22;4241;48.452;9.216;2023-04-24T19:31:25;9.30;99.90
8408;DHT22;4241;48.452;9.216;2023-04-24T19:33:51;9.10;99.90
8408;DHT22;4241;48.452;9.216;2023-04-24T19:36:18;9.10;99.90
8408;DHT22;4241;48.452;9.216;2023-04-24T19:38:46;9.20;99.90
8408;DHT22;4241;48.452;9.216;2023-04-24T19:41:15;9.20;99.90
8408;DHT22;4241;48.452;9.216;2023-04-24T19:43:42;9.30;99.90
8408;DHT22;4241;48.452;9.216;2023-04-24T19:48:37;9.30;99.90
8408;DHT22;4241;48.452;9.216;2023-04-24T19:53:31;9.30;99.90
8408;DHT22;4241;48.452;9.216;2023-04-24T20:00:54;9.30;99.90
8408;DHT22;4241;48.452;9.216;2023-04-24T20:03:21;9.20;99.90
8408;DHT22;4241;48.452;9.216;2023-04-24T20:05:50;9.30;99.90
8408;DHT22;4241;48.452;9.216;2023-04-24T20:13:11;9.30;99.90
8408;DHT22;4241;48.452;9.216;2023-04-24T20:15:41;9.30;99.90
8408;DHT22;4241;48.452;9.216;2023-04-24T20:18:07;9.30;99.90
8408;DHT22;4241;48.452;9.216;2023-04-24T20:20:34;9.30;99.90
8408;DHT22;4241;48.452;9.216;2023-04-24T20:23:04;9.30;99.90
8408;DHT22;4241;48.452;9.216;2023-04-24T20:28:00;9.10;99.90
8408;DHT22;4241;48.452;9.216;2023-04-24T20:30:26;9.00;99.90
8408;DHT22;4241;48.452;9.216;2023-04-24T20:40:16;9.00;99.90
8408;DHT22;4241;48.452;9.216;2023-04-24T20:42:44;8.90;99.90
8408;DHT22;4241;48.452;9.216;2023-04-24T20:50:06;8.90;99.90
8408;DHT22;4241;48.452;9.216;2023-04-24T20:52:33;9.00;99.90
8408;DHT22;4241;48.452;9.216;2023-04-24T20:55:00;8.80;99.90
8408;DHT22;4241;48.452;9.216;2023-04-24T20:57:30;8.70;99.90
8408;DHT22;4241;48.452;9.216;2023-04-24T21:02:24;8.60;99.90
8408;DHT22;4241;48.452;9.216;2023-04-24T21:04:50;8.60;99.90
8408;DHT22;4241;48.452;9.216;2023-04-24T21:07:17;9.20;99.90
8408;DHT22;4241;48.452;9.216;2023-04-24T21:09:44;8.60;99.90
8408;DHT22;4241;48.452;9.216;2023-04-24T21:12:11;8.60;99.90
8408;DHT22;4241;48.452;9.216;2023-04-24T21:14:39;8.40;99.90
8408;DHT22;4241;48.452;9.216;2023-04-24T21:17:06;8.50;99.90
8408;DHT22;4241;48.452;9.216;2023-04-24T21:29:21;8.30;99.90
8408;DHT22;4241;48.452;9.216;2023-04-24T21:31:49;8.30;99.90
8408;DHT22;4241;48.452;9.216;2023-04-24T21:34:18;8.30;99.90
8408;DHT22;4241;48.452;9.216;2023-04-24T21:39:12;8.20;99.90
8408;DHT22;4241;48.452;9.216;2023-04-24T21:41:39;8.00;99.90
8408;DHT22;4241;48.452;9.216;2023-04-24T21:44:06;8.10;99.90
8408;DHT22;4241;48.452;9.216;2023-04-24T21:46:33;8.00;99.90